Portada
METAR-TAF:

METAR-TAF

Aeroports :

Udon Thani, Tailàndia

latitud: 17-23N, longitud: 102-48E, altitud: 177 m

Observació

L'informe es va fer fa 1 hora i 2 minuts, a les 04:00 UTC
Vent 3 kt del Oest, variant entre Sud/Sud-Oest i Nord
Temperatura 32°C
Humitat 59%
Pressió 1014 hPa
Visibilitat 10 km o més
Escasses núvols a una alçada de 2000 ft
Núvols disperses a una alçada de 10000 ft

METAR: VTUD 070400Z 27003KT 210V010 9999 FEW020 SCT100 32/23 Q1014 NOSIG

Hora: 12:02 (05:02 UTC)

Pronòstic

L'informe es va fer fa 6 hores i 2 minuts, a les 23:00 UTC
Pronòstic vàlid del 07 a les 00 UTC al 07 a les 24 UTC
Vent 5 kt del Oest
Visibilitat: 9000 m
Escasses núvols a una alçada de 3000 ft
Núvols disperses a una alçada de 10000 ft

TAF: VTUD 062300Z 0700/0724 27005KT 9000 FEW030 SCT100

Observacions i pronòstics meteorològics de més de 4000 aeroports (METAR i TAF).

Les estacions disponibles són els punts grocs i vermells al mapa.

Posi el ratolí al punt desitjat per veure el nom de l'estació.

Feu clic per veure les observacions i els pronòstics meteorològics.

Per canviar el mapa: feu clic els botons verds amb una creu de color negre per apropar; al botó verd amb un guió per allunyar la imatge; o en les fletxes verdes per a mapes adjacents.


METAR-TAF: